Time;durP1;ratioP1;P1;durP2;ratioP2;P2;SDS_P1;SDS_P2;PMS_P1;PMS_P2;Temp;Humidity;BMP_temperature;BMP_pressure;BME280_temperature;BME280_humidity;BME280_pressure;Samples;Min_cycle;Max_cycle;Signal;HPM_P1;HPM_P2
2022/11/07 00:01:15;;;;;;;7.97;3.80;;;12.00;99.90;;;;;;5105054;28;20024;-71
2022/11/07 00:03:41;;;;;;;9.90;3.72;;;12.00;99.90;;;;;;5108790;28;20024;-71
2022/11/07 00:06:06;;;;;;;9.23;3.88;;;12.00;99.90;;;;;;5089075;28;20036;-71
2022/11/07 00:08:32;;;;;;;9.40;4.10;;;12.00;99.90;;;;;;5103378;28;20020;-71
2022/11/07 00:10:59;;;;;;;10.32;3.60;;;12.00;99.90;;;;;;5106745;28;20024;-71
2022/11/07 00:13:26;;;;;;;10.93;3.55;;;12.00;99.90;;;;;;5107706;28;20027;-71
2022/11/07 00:15:59;;;;;;;13.45;3.90;;;12.00;99.90;;;;;;5104534;28;20476;-71
2022/11/07 00:18:24;;;;;;;8.13;3.45;;;12.00;99.90;;;;;;5102170;27;20079;-71
2022/11/07 00:20:50;;;;;;;8.23;3.63;;;11.90;99.90;;;;;;5111411;28;20031;-71
2022/11/07 00:23:16;;;;;;;10.88;3.78;;;12.00;99.90;;;;;;5103874;28;20030;-72
2022/11/07 00:25:41;;;;;;;8.52;3.30;;;12.00;99.90;;;;;;5108791;28;20475;-72
2022/11/07 00:28:07;;;;;;;14.02;3.50;;;12.00;99.90;;;;;;5106295;28;20468;-71
2022/11/07 00:30:32;;;;;;;6.20;2.97;;;12.00;99.90;;;;;;5109231;28;20012;-71
2022/11/07 00:32:58;;;;;;;8.90;3.00;;;12.00;99.90;;;;;;5109092;28;20023;-71
2022/11/07 00:35:24;;;;;;;11.88;3.05;;;12.00;99.90;;;;;;5102639;28;20056;-72
2022/11/07 00:37:49;;;;;;;11.32;3.15;;;12.00;99.90;;;;;;5086112;28;20023;-72
2022/11/07 00:40:15;;;;;;;9.13;3.22;;;11.90;99.90;;;;;;5107772;28;20484;-72
2022/11/07 00:42:41;;;;;;;7.13;2.63;;;12.00;99.90;;;;;;5102474;28;20028;-72
2022/11/07 00:45:07;;;;;;;7.53;2.53;;;11.90;99.90;;;;;;5108487;28;20028;-72
2022/11/07 00:47:32;;;;;;;13.90;3.60;;;12.00;99.90;;;;;;5102947;28;20110;-72
2022/11/07 00:49:58;;;;;;;8.93;3.20;;;12.00;99.90;;;;;;5111086;28;20100;-71
2022/11/07 00:52:24;;;;;;;8.48;3.70;;;11.90;99.90;;;;;;5107864;28;20035;-71
2022/11/07 00:54:49;;;;;;;6.65;2.88;;;12.00;99.90;;;;;;5101207;28;20027;-71
2022/11/07 00:57:15;;;;;;;10.73;4.05;;;12.00;99.90;;;;;;5108027;28;20036;-71
2022/11/07 00:59:41;;;;;;;7.25;3.35;;;12.00;99.90;;;;;;5107615;28;20016;-71
2022/11/07 01:02:06;;;;;;;7.65;2.83;;;12.00;99.90;;;;;;5109420;28;20027;-71
2022/11/07 01:05:14;;;;;;;8.50;3.70;;;11.90;99.90;;;;;;5101788;28;20015;-72
2022/11/07 01:07:20;;;;;;;8.45;3.60;;;12.00;99.90;;;;;;5097864;28;20086;-71
2022/11/07 01:09:46;;;;;;;12.07;3.25;;;12.00;99.90;;;;;;5101756;28;20073;-71
2022/11/07 01:12:12;;;;;;;8.32;3.28;;;12.00;99.90;;;;;;5101370;28;20024;-71
2022/11/07 01:14:38;;;;;;;6.95;3.13;;;11.90;99.90;;;;;;5103230;28;20020;-71
2022/11/07 01:17:04;;;;;;;6.45;3.10;;;11.90;99.90;;;;;;5102933;28;20036;-71
2022/11/07 01:19:30;;;;;;;5.70;2.78;;;11.90;99.90;;;;;;5084195;28;20429;-71
2022/11/07 01:21:55;;;;;;;8.60;3.10;;;12.00;99.90;;;;;;5107526;28;20027;-71
2022/11/07 01:24:21;;;;;;;10.27;3.10;;;11.90;99.90;;;;;;5102730;28;20506;-71
2022/11/07 01:26:47;;;;;;;8.05;3.75;;;11.90;99.90;;;;;;5092292;28;20036;-71
2022/11/07 01:29:16;;;;;;;8.55;3.17;;;11.80;99.90;;;;;;5099560;28;20496;-71
2022/11/07 01:31:42;;;;;;;5.75;2.72;;;11.90;99.90;;;;;;5106556;28;20099;-71
2022/11/07 01:34:08;;;;;;;8.82;3.42;;;11.90;99.90;;;;;;5102438;28;20107;-71
2022/11/07 01:36:34;;;;;;;11.45;3.30;;;11.90;99.90;;;;;;5105118;28;20107;-71
2022/11/07 01:38:59;;;;;;;7.65;3.35;;;12.00;99.90;;;;;;5101911;28;20066;-71
2022/11/07 01:41:28;;;;;;;10.00;3.20;;;12.00;99.90;;;;;;5109228;28;20016;-71
2022/11/07 01:44:07;;;;;;;7.72;3.28;;;12.00;99.90;;;;;;5103755;28;20024;-71
2022/11/07 01:46:41;;;;;;;6.05;3.20;;;12.00;99.90;;;;;;5104356;28;20028;-71
2022/11/07 01:49:09;;;;;;;10.68;3.33;;;12.00;99.90;;;;;;5090538;28;20042;-71
2022/11/07 01:51:42;;;;;;;12.70;3.13;;;12.10;99.90;;;;;;5102999;28;20425;-71
2022/11/07 01:54:08;;;;;;;8.05;3.08;;;12.10;99.90;;;;;;5091577;28;20471;-71
2022/11/07 01:56:38;;;;;;;12.63;3.42;;;12.20;99.90;;;;;;5107720;28;20020;-71
2022/11/07 01:59:04;;;;;;;11.20;3.47;;;12.20;99.90;;;;;;5110354;28;20019;-71
2022/11/07 02:01:30;;;;;;;10.82;2.95;;;12.20;99.90;;;;;;5109533;28;20020;-71
2022/11/07 02:03:57;;;;;;;9.10;3.25;;;12.20;99.90;;;;;;5103269;28;20057;-71
2022/11/07 02:06:39;;;;;;;4.57;2.97;;;12.30;99.90;;;;;;5107503;28;20040;-72
2022/11/07 02:09:05;;;;;;;8.85;3.90;;;12.30;99.90;;;;;;5103783;28;20032;-71
2022/11/07 02:11:32;;;;;;;10.70;3.80;;;12.30;99.90;;;;;;5114659;28;20035;-71
2022/11/07 02:13:57;;;;;;;7.75;3.55;;;12.30;99.90;;;;;;5108727;28;20102;-71
2022/11/07 02:16:23;;;;;;;7.70;3.15;;;12.40;99.90;;;;;;5115671;28;20099;-71
2022/11/07 02:18:49;;;;;;;8.27;3.20;;;12.40;99.90;;;;;;5108238;28;20038;-71
2022/11/07 02:21:41;;;;;;;14.68;3.75;;;12.30;99.90;;;;;;5113485;28;20030;-71
2022/11/07 02:24:06;;;;;;;11.77;3.13;;;12.30;99.90;;;;;;5104346;28;20080;-71
2022/11/07 02:26:37;;;;;;;12.90;3.53;;;12.30;99.90;;;;;;5109326;28;20043;-71
2022/11/07 02:29:06;;;;;;;12.55;3.15;;;12.30;99.90;;;;;;5111118;28;20486;-71
2022/11/07 02:31:31;;;;;;;9.20;2.78;;;12.30;99.90;;;;;;5107649;28;20023;-71
2022/11/07 02:33:57;;;;;;;9.60;3.22;;;12.40;99.90;;;;;;5086196;28;20487;-71
2022/11/07 02:36:24;;;;;;;12.57;3.78;;;12.30;99.90;;;;;;5110121;28;20023;-72
2022/11/07 02:38:56;;;;;;;15.00;3.55;;;12.30;99.90;;;;;;5113362;28;20168;-71
2022/11/07 02:41:33;;;;;;;16.23;3.75;;;12.20;99.90;;;;;;5107830;28;20020;-71
2022/11/07 02:44:06;;;;;;;15.05;3.80;;;12.20;99.90;;;;;;5110624;28;20016;-71
2022/11/07 02:46:32;;;;;;;11.57;3.63;;;12.30;99.90;;;;;;5109529;28;20063;-71
2022/11/07 02:48:59;;;;;;;14.27;4.05;;;12.30;99.90;;;;;;5112873;28;20028;-71
2022/11/07 02:51:25;;;;;;;9.38;3.38;;;12.20;99.90;;;;;;5109564;28;20396;-72
2022/11/07 02:53:52;;;;;;;16.40;3.60;;;12.20;99.90;;;;;;5108296;28;20012;-71
2022/11/07 02:56:18;;;;;;;12.32;3.03;;;12.20;99.90;;;;;;5110322;28;20020;-71
2022/11/07 02:58:44;;;;;;;14.25;3.60;;;12.30;99.90;;;;;;5110323;28;20020;-72
2022/11/07 03:01:11;;;;;;;10.52;3.00;;;12.20;99.90;;;;;;5112469;28;20110;-71
2022/11/07 03:03:40;;;;;;;12.27;3.05;;;12.30;99.90;;;;;;5113822;28;20019;-71
2022/11/07 03:06:07;;;;;;;16.40;3.95;;;12.30;99.90;;;;;;5110914;28;20027;-71
2022/11/07 03:08:33;;;;;;;13.93;3.08;;;12.30;99.90;;;;;;5105533;28;20012;-72
2022/11/07 03:11:00;;;;;;;15.95;3.42;;;12.30;99.90;;;;;;5109349;28;20043;-72
2022/11/07 03:13:26;;;;;;;9.85;3.72;;;12.20;99.90;;;;;;5113326;28;20099;-71
2022/11/07 03:15:52;;;;;;;14.27;3.63;;;12.30;99.90;;;;;;5110365;28;20063;-71
2022/11/07 03:18:18;;;;;;;14.35;3.88;;;12.30;99.90;;;;;;5104045;28;20055;-71
2022/11/07 03:20:44;;;;;;;12.68;3.45;;;12.40;99.90;;;;;;5110714;28;20063;-71
2022/11/07 03:23:10;;;;;;;14.55;3.45;;;12.30;99.90;;;;;;5111560;28;20016;-71
2022/11/07 03:25:36;;;;;;;17.45;3.83;;;12.30;99.90;;;;;;5107520;28;20020;-71
2022/11/07 03:28:01;;;;;;;10.95;3.08;;;12.30;99.90;;;;;;5111459;28;20079;-72
2022/11/07 03:30:27;;;;;;;12.57;3.72;;;12.20;99.90;;;;;;5112910;28;20059;-71
2022/11/07 03:32:54;;;;;;;19.20;3.75;;;12.20;99.90;;;;;;5108668;28;20027;-71
2022/11/07 03:35:20;;;;;;;13.63;3.80;;;12.20;99.90;;;;;;5112317;28;20031;-71
2022/11/07 03:37:47;;;;;;;11.00;3.00;;;12.20;99.90;;;;;;5109406;28;20024;-71
2022/11/07 03:40:13;;;;;;;12.30;3.95;;;12.20;99.90;;;;;;5111340;28;20024;-71
2022/11/07 03:42:40;;;;;;;15.77;3.67;;;12.20;99.90;;;;;;5105322;28;20099;-71
2022/11/07 03:45:07;;;;;;;13.60;3.35;;;12.20;99.90;;;;;;5105673;28;20016;-71
2022/11/07 03:47:35;;;;;;;16.77;3.40;;;12.30;99.90;;;;;;5111591;28;20043;-71
2022/11/07 03:50:01;;;;;;;13.15;3.65;;;12.30;99.90;;;;;;5105230;28;20468;-71
2022/11/07 03:52:26;;;;;;;9.90;3.05;;;12.30;99.90;;;;;;5111413;28;20107;-71
2022/11/07 03:54:52;;;;;;;17.25;3.03;;;12.30;99.90;;;;;;5114056;28;20015;-71
2022/11/07 03:57:17;;;;;;;14.68;3.20;;;12.30;99.90;;;;;;5104879;28;20053;-72
2022/11/07 03:59:43;;;;;;;14.73;3.65;;;12.30;99.90;;;;;;5108402;28;20020;-71
2022/11/07 04:02:09;;;;;;;22.65;4.10;;;12.40;99.90;;;;;;5110614;28;20035;-71
2022/11/07 04:04:34;;;;;;;13.32;3.22;;;12.40;99.90;;;;;;5111994;28;20038;-71
2022/11/07 04:07:00;;;;;;;15.27;3.28;;;12.30;99.90;;;;;;5104689;28;20067;-71
2022/11/07 04:09:26;;;;;;;16.95;3.90;;;12.30;99.90;;;;;;5105257;28;20025;-71
2022/11/07 04:17:20;;;;;;;16.92;4.35;;;12.30;99.90;;;;;;5102096;28;20031;-72
2022/11/07 04:19:48;;;;;;;16.00;3.60;;;12.30;99.90;;;;;;5109295;28;20099;-71
2022/11/07 04:22:15;;;;;;;16.20;3.63;;;12.30;99.90;;;;;;5108484;28;20024;-71
2022/11/07 04:24:44;;;;;;;13.18;2.97;;;12.30;99.90;;;;;;5107995;28;20015;-71
2022/11/07 04:29:54;;;;;;;19.65;4.30;;;12.20;99.90;;;;;;5110014;28;20111;-71
2022/11/07 04:32:21;;;;;;;14.90;3.33;;;12.30;99.90;;;;;;5110207;28;20047;-71
2022/11/07 04:34:46;;;;;;;14.05;3.47;;;12.20;99.90;;;;;;5105435;28;20103;-71
2022/11/07 04:37:12;;;;;;;17.75;4.15;;;12.20;99.90;;;;;;5107961;28;20463;-72
2022/11/07 04:39:38;;;;;;;12.57;3.15;;;12.20;99.90;;;;;;5100581;28;20069;-71
2022/11/07 04:42:03;;;;;;;13.60;3.40;;;12.20;99.90;;;;;;5111541;28;20388;-71
2022/11/07 04:44:29;;;;;;;17.65;3.40;;;12.20;99.90;;;;;;5112623;28;20024;-71
2022/11/07 04:46:55;;;;;;;13.75;3.22;;;12.20;99.90;;;;;;5105176;28;20047;-71
2022/11/07 04:49:20;;;;;;;11.88;3.13;;;12.20;99.90;;;;;;5111163;28;20025;-71
2022/11/07 04:51:46;;;;;;;16.42;3.03;;;12.20;99.90;;;;;;5103041;28;20023;-71
2022/11/07 04:54:15;;;;;;;16.35;3.70;;;12.20;99.90;;;;;;5108636;28;20015;-71
2022/11/07 04:56:40;;;;;;;17.45;3.35;;;12.20;99.90;;;;;;5110642;28;20027;-71
2022/11/07 04:59:06;;;;;;;15.35;3.67;;;12.20;99.90;;;;;;5112401;28;20129;-71
2022/11/07 05:01:32;;;;;;;15.35;3.45;;;12.10;99.90;;;;;;5109025;28;20106;-71
2022/11/07 05:03:58;;;;;;;14.27;3.10;;;12.20;99.90;;;;;;5103721;28;20157;-71
2022/11/07 05:06:24;;;;;;;12.95;2.70;;;12.20;99.90;;;;;;5098675;28;20521;-72
2022/11/07 05:08:50;;;;;;;12.38;2.85;;;12.20;99.90;;;;;;5089307;28;20027;-71
2022/11/07 05:11:15;;;;;;;12.32;2.83;;;12.20;99.90;;;;;;5113002;28;20483;-72
2022/11/07 05:13:41;;;;;;;19.10;3.20;;;12.20;99.90;;;;;;5105225;28;20475;-71
2022/11/07 05:16:16;;;;;;;12.10;3.58;;;12.20;99.90;;;;;;5100899;28;20103;-71
2022/11/07 05:18:42;;;;;;;15.50;3.20;;;12.20;99.90;;;;;;5104923;28;20031;-72
2022/11/07 05:21:07;;;;;;;17.60;3.40;;;12.30;99.90;;;;;;5106910;28;20521;-71
2022/11/07 05:23:33;;;;;;;16.92;3.05;;;12.20;99.90;;;;;;5111326;28;20016;-72
2022/11/07 05:25:59;;;;;;;15.82;2.78;;;12.30;99.90;;;;;;5111574;28;20102;-71
2022/11/07 05:28:27;;;;;;;13.98;2.92;;;12.30;99.90;;;;;;5090281;28;20020;-71
2022/11/07 05:30:52;;;;;;;14.20;3.60;;;12.30;99.90;;;;;;5086827;28;20024;-71
2022/11/07 05:33:19;;;;;;;11.90;2.90;;;12.30;99.90;;;;;;5109586;28;20028;-72
2022/11/07 05:35:45;;;;;;;16.38;3.45;;;12.30;99.90;;;;;;5107801;28;20559;-72
2022/11/07 05:38:11;;;;;;;13.40;4.00;;;12.30;99.90;;;;;;5111309;28;20020;-71
2022/11/07 05:40:38;;;;;;;12.88;3.15;;;12.40;99.90;;;;;;5106611;28;20028;-71
2022/11/07 05:43:07;;;;;;;17.05;3.42;;;12.40;99.90;;;;;;5103796;28;20092;-71
2022/11/07 05:45:36;;;;;;;15.70;3.40;;;12.40;99.90;;;;;;5100396;28;20040;-71
2022/11/07 05:48:07;;;;;;;15.63;3.00;;;12.40;99.90;;;;;;5109988;28;20047;-72
2022/11/07 05:50:33;;;;;;;17.45;3.53;;;12.40;99.90;;;;;;5105658;28;20499;-71
2022/11/07 05:52:59;;;;;;;14.35;3.00;;;12.40;99.90;;;;;;5111053;28;20024;-71
2022/11/07 05:55:24;;;;;;;11.80;3.00;;;12.40;99.90;;;;;;5088097;28;20181;-71
2022/11/07 05:57:51;;;;;;;10.93;3.30;;;12.40;99.90;;;;;;5102722;28;20022;-73
2022/11/07 06:00:17;;;;;;;11.25;2.65;;;12.50;99.90;;;;;;5101036;28;20128;-72
2022/11/07 06:02:44;;;;;;;13.05;2.97;;;12.40;99.90;;;;;;5109316;28;20055;-71
2022/11/07 06:05:11;;;;;;;13.45;2.63;;;12.50;99.90;;;;;;5108415;28;20754;-71
2022/11/07 06:07:38;;;;;;;14.32;3.30;;;12.50;99.90;;;;;;5111439;28;20108;-71
2022/11/07 06:10:05;;;;;;;16.75;3.15;;;12.50;99.90;;;;;;5108021;28;20065;-71
2022/11/07 06:12:30;;;;;;;13.85;2.70;;;12.50;99.90;;;;;;5108841;28;20050;-71
2022/11/07 06:14:56;;;;;;;14.93;3.13;;;12.50;99.90;;;;;;5106438;28;20460;-71
2022/11/07 06:17:22;;;;;;;16.73;3.47;;;12.60;99.90;;;;;;5109304;28;20019;-71
2022/11/07 06:19:47;;;;;;;18.23;3.58;;;12.40;99.90;;;;;;5107726;28;20032;-71
2022/11/07 06:22:13;;;;;;;22.98;3.85;;;12.50;99.90;;;;;;5110580;28;20020;-70
2022/11/07 06:24:39;;;;;;;17.48;3.58;;;12.60;99.90;;;;;;5087052;28;20015;-71
2022/11/07 06:27:04;;;;;;;19.90;3.35;;;12.50;99.90;;;;;;5103882;28;20044;-71
2022/11/07 06:29:30;;;;;;;20.88;3.63;;;12.50;99.90;;;;;;5089848;28;20098;-72
2022/11/07 06:31:56;;;;;;;21.55;3.30;;;12.50;99.90;;;;;;5103528;28;20032;-72
2022/11/07 06:34:21;;;;;;;14.98;3.15;;;12.50;99.90;;;;;;5100961;28;20020;-71
2022/11/07 06:36:52;;;;;;;18.67;3.42;;;12.50;99.90;;;;;;5102681;28;20016;-72
2022/11/07 06:39:17;;;;;;;19.20;3.55;;;12.60;99.90;;;;;;5104458;28;20019;-72
2022/11/07 06:41:43;;;;;;;12.32;3.42;;;12.60;99.90;;;;;;5105440;28;20030;-71
2022/11/07 06:44:09;;;;;;;13.52;2.88;;;12.60;99.90;;;;;;5106284;28;20429;-71
2022/11/07 06:46:34;;;;;;;22.77;3.60;;;12.70;99.90;;;;;;5083251;28;20036;-72
2022/11/07 06:49:00;;;;;;;20.02;3.97;;;12.70;99.90;;;;;;5108967;28;20074;-72
2022/11/07 06:51:25;;;;;;;13.02;2.67;;;12.70;99.90;;;;;;5107521;27;20027;-71
2022/11/07 06:53:53;;;;;;;17.63;3.72;;;12.80;99.90;;;;;;5111275;28;20581;-71
2022/11/07 06:56:18;;;;;;;13.88;2.95;;;12.80;99.90;;;;;;5108884;27;20039;-76
2022/11/07 06:58:44;;;;;;;10.95;2.70;;;12.80;99.90;;;;;;5111828;28;20020;-72
2022/11/07 07:01:12;;;;;;;19.35;3.40;;;12.80;99.90;;;;;;5103534;28;20030;-72
2022/11/07 07:03:39;;;;;;;14.82;3.47;;;12.80;99.90;;;;;;5108149;28;20063;-71
2022/11/07 07:06:06;;;;;;;12.48;3.03;;;12.90;99.90;;;;;;5110675;27;20036;-71
2022/11/07 07:08:33;;;;;;;14.20;3.20;;;12.90;99.90;;;;;;5109731;28;20016;-72
2022/11/07 07:11:07;;;;;;;11.63;2.92;;;12.80;99.90;;;;;;5112938;28;20016;-71
2022/11/07 07:13:34;;;;;;;14.50;2.70;;;12.80;99.90;;;;;;5108435;28;20020;-72
2022/11/07 07:16:00;;;;;;;12.90;3.30;;;12.90;99.90;;;;;;5087554;28;20028;-72
2022/11/07 07:18:27;;;;;;;16.80;3.10;;;12.90;99.90;;;;;;5108143;28;20030;-72
2022/11/07 07:21:11;;;;;;;10.57;3.40;;;12.90;99.90;;;;;;5103384;27;20021;-71
2022/11/07 07:23:39;;;;;;;12.52;3.53;;;13.00;99.90;;;;;;5107362;28;20165;-71
2022/11/07 07:26:08;;;;;;;17.48;3.53;;;13.00;99.90;;;;;;5112610;28;20067;-71
2022/11/07 07:28:36;;;;;;;17.92;3.55;;;13.00;99.90;;;;;;5109596;28;20026;-71
2022/11/07 07:31:13;;;;;;;17.70;3.40;;;13.00;99.90;;;;;;5089245;28;20023;-71
2022/11/07 07:33:44;;;;;;;19.60;3.05;;;13.10;99.90;;;;;;5093456;28;20054;-71
2022/11/07 07:36:11;;;;;;;12.20;3.85;;;13.20;99.90;;;;;;5113755;28;20482;-71
2022/11/07 07:38:37;;;;;;;20.65;4.03;;;13.10;99.90;;;;;;5104361;28;20027;-71
2022/11/07 07:41:03;;;;;;;17.48;2.97;;;13.20;99.90;;;;;;5100987;27;20155;-72
2022/11/07 07:43:28;;;;;;;18.55;3.35;;;13.20;99.90;;;;;;5091498;28;20862;-72
2022/11/07 07:46:02;;;;;;;14.48;3.50;;;13.20;99.90;;;;;;5107105;28;20328;-72
2022/11/07 07:48:28;;;;;;;14.25;3.40;;;13.20;99.90;;;;;;5102902;28;20020;-72
2022/11/07 07:50:54;;;;;;;15.15;3.08;;;13.20;99.90;;;;;;5105080;28;20408;-72
2022/11/07 07:53:19;;;;;;;14.55;3.20;;;13.20;99.90;;;;;;5106035;28;20110;-72
2022/11/07 07:55:45;;;;;;;12.98;3.00;;;13.20;99.90;;;;;;5107787;28;20027;-71
2022/11/07 07:58:11;;;;;;;14.35;3.38;;;13.30;99.90;;;;;;5103525;28;20020;-71
2022/11/07 08:00:37;;;;;;;17.10;3.85;;;13.30;99.90;;;;;;5106085;28;20101;-71
2022/11/07 08:03:06;;;;;;;13.13;3.25;;;13.40;99.90;;;;;;5099125;28;20025;-71
2022/11/07 08:05:32;;;;;;;11.18;2.75;;;13.40;99.90;;;;;;5107268;28;20548;-71
2022/11/07 08:07:58;;;;;;;18.67;4.20;;;13.40;99.90;;;;;;5112096;28;20024;-72
2022/11/07 08:10:23;;;;;;;12.65;2.75;;;13.40;99.90;;;;;;5105923;28;20024;-71
2022/11/07 08:12:51;;;;;;;21.95;3.75;;;13.40;99.90;;;;;;5108787;28;20446;-71
2022/11/07 08:15:18;;;;;;;17.77;3.50;;;13.50;99.90;;;;;;5106032;28;20030;-72
2022/11/07 08:17:44;;;;;;;12.52;2.97;;;13.50;99.90;;;;;;5103076;28;20023;-72
2022/11/07 08:20:12;;;;;;;13.27;2.80;;;13.50;99.90;;;;;;5106376;28;20073;-72
2022/11/07 08:22:38;;;;;;;13.63;2.97;;;13.50;99.90;;;;;;5102526;27;20078;-72
2022/11/07 08:25:09;;;;;;;14.68;2.63;;;13.50;99.90;;;;;;5105825;28;20032;-72
2022/11/07 08:27:35;;;;;;;15.82;3.08;;;13.50;99.90;;;;;;5108543;28;20054;-73
2022/11/07 08:30:03;;;;;;;16.65;3.28;;;13.60;99.90;;;;;;5104140;27;20402;-72
2022/11/07 08:32:29;;;;;;;13.82;3.17;;;13.50;99.90;;;;;;5110105;28;20047;-73
2022/11/07 08:34:55;;;;;;;12.25;2.70;;;13.60;99.90;;;;;;5087430;28;20054;-73
2022/11/07 08:37:21;;;;;;;16.33;3.35;;;13.60;99.90;;;;;;5109564;28;20019;-73
2022/11/07 08:39:46;;;;;;;14.02;2.67;;;13.60;99.90;;;;;;5102972;28;20019;-73
2022/11/07 08:42:12;;;;;;;12.27;3.10;;;13.60;99.90;;;;;;5103668;28;20491;-73
2022/11/07 08:44:38;;;;;;;16.35;3.13;;;13.70;99.90;;;;;;5101805;28;20026;-73
2022/11/07 08:47:04;;;;;;;16.90;2.80;;;13.70;99.90;;;;;;5104771;28;20414;-73
2022/11/07 08:49:30;;;;;;;13.82;2.80;;;13.60;99.90;;;;;;5091301;28;20472;-73
2022/11/07 08:51:56;;;;;;;15.00;2.72;;;13.70;99.90;;;;;;5107550;28;20099;-73
2022/11/07 08:54:21;;;;;;;12.52;3.10;;;13.70;99.90;;;;;;5105512;28;20091;-73
2022/11/07 08:56:47;;;;;;;16.02;3.13;;;13.80;99.90;;;;;;5085477;28;20028;-73
2022/11/07 08:59:14;;;;;;;9.70;2.97;;;13.80;99.90;;;;;;5103740;28;20035;-73
2022/11/07 09:01:39;;;;;;;12.35;3.13;;;13.70;99.90;;;;;;5089693;28;20024;-73
2022/11/07 09:04:05;;;;;;;17.20;3.42;;;13.80;99.90;;;;;;5085836;28;20364;-73
2022/11/07 09:06:34;;;;;;;17.50;3.30;;;13.80;99.90;;;;;;5111018;28;20371;-75
2022/11/07 09:09:00;;;;;;;17.10;3.15;;;13.80;99.90;;;;;;5080243;28;20584;-76
2022/11/07 09:11:26;;;;;;;20.80;3.47;;;13.80;99.90;;;;;;5107104;28;20035;-75
2022/11/07 09:13:53;;;;;;;12.90;3.67;;;13.90;99.90;;;;;;5100700;27;20024;-75
2022/11/07 09:16:20;;;;;;;18.42;3.95;;;13.90;99.90;;;;;;5105863;28;20024;-74
2022/11/07 09:18:47;;;;;;;18.83;4.18;;;13.90;99.90;;;;;;5109266;27;20069;-74
2022/11/07 09:21:13;;;;;;;14.15;4.18;;;14.00;99.90;;;;;;5103007;28;20167;-74
2022/11/07 09:23:38;;;;;;;15.63;3.67;;;14.00;99.90;;;;;;5105365;28;20464;-74
2022/11/07 09:26:05;;;;;;;15.57;3.40;;;14.00;99.90;;;;;;5102557;28;20383;-74
2022/11/07 09:28:31;;;;;;;18.83;3.60;;;14.00;99.90;;;;;;5088375;28;20102;-74
2022/11/07 09:30:58;;;;;;;13.30;4.07;;;14.00;99.90;;;;;;5102290;28;20484;-74
2022/11/07 09:33:24;;;;;;;15.40;3.17;;;14.00;99.90;;;;;;5108909;28;20149;-74
2022/11/07 09:35:50;;;;;;;13.80;2.90;;;14.10;99.90;;;;;;5092773;28;20053;-73
2022/11/07 09:38:16;;;;;;;16.45;3.10;;;14.10;99.90;;;;;;5107950;28;20027;-74
2022/11/07 09:40:54;;;;;;;14.57;3.72;;;14.10;99.90;;;;;;5104985;28;20020;-74
2022/11/07 09:43:57;;;;;;;17.00;4.28;;;14.10;99.90;;;;;;5100274;28;20032;-73
2022/11/07 09:46:34;;;;;;;16.35;3.33;;;14.20;99.90;;;;;;5083292;28;20046;-73
2022/11/07 09:49:18;;;;;;;20.60;3.40;;;14.20;99.90;;;;;;5082277;28;20035;-74
2022/11/07 09:51:58;;;;;;;12.30;3.03;;;14.20;99.90;;;;;;5104045;28;20110;-74
2022/11/07 09:54:30;;;;;;;15.98;3.10;;;14.30;99.90;;;;;;5104029;28;20032;-73
2022/11/07 09:56:58;;;;;;;11.57;2.95;;;14.30;99.90;;;;;;5104115;28;20410;-72
2022/11/07 09:59:32;;;;;;;16.77;3.20;;;14.40;99.90;;;;;;5102446;28;20024;-73
2022/11/07 10:01:58;;;;;;;19.08;3.75;;;14.30;99.90;;;;;;5092746;28;20476;-73
2022/11/07 10:04:24;;;;;;;18.73;4.03;;;14.40;99.90;;;;;;5099190;28;20028;-73
2022/11/07 10:07:03;;;;;;;18.00;3.72;;;14.50;99.90;;;;;;5104380;28;20016;-73
2022/11/07 10:09:42;;;;;;;10.55;2.97;;;14.60;99.90;;;;;;5104803;28;20077;-74
2022/11/07 10:12:37;;;;;;;19.83;3.60;;;14.60;99.90;;;;;;5099253;28;20034;-74
2022/11/07 10:15:26;;;;;;;17.25;3.10;;;14.60;99.90;;;;;;5092905;28;20115;-74
2022/11/07 10:18:11;;;;;;;19.25;3.38;;;14.70;99.90;;;;;;5107157;28;20024;-74
2022/11/07 10:21:28;;;;;;;15.48;4.30;;;14.80;99.90;;;;;;5103135;28;20126;-73
2022/11/07 10:24:31;;;;;;;19.95;4.07;;;14.90;99.90;;;;;;5069933;28;20498;-75
2022/11/07 10:26:57;;;;;;;18.65;3.58;;;15.00;99.90;;;;;;5108321;28;20042;-73
2022/11/07 10:29:27;;;;;;;14.23;2.95;;;15.00;99.90;;;;;;5104412;28;20031;-73
2022/11/07 10:32:26;;;;;;;17.08;3.70;;;15.00;99.90;;;;;;5111047;28;20038;-73
2022/11/07 10:35:11;;;;;;;15.88;3.15;;;15.00;99.90;;;;;;5105185;28;20059;-75
2022/11/07 10:37:36;;;;;;;12.13;3.20;;;15.10;99.90;;;;;;5106583;28;20433;-74
2022/11/07 10:40:16;;;;;;;9.88;2.80;;;15.20;99.90;;;;;;5110680;28;20084;-74
2022/11/07 10:42:44;;;;;;;9.85;3.10;;;15.30;99.90;;;;;;5110694;28;20342;-72
2022/11/07 10:45:15;;;;;;;13.60;2.97;;;15.30;99.90;;;;;;5110289;28;20073;-74
2022/11/07 10:47:41;;;;;;;17.60;3.25;;;15.40;99.90;;;;;;5110169;28;20038;-74
2022/11/07 10:50:22;;;;;;;17.85;3.08;;;15.30;99.90;;;;;;5103183;28;20016;-73
2022/11/07 10:52:59;;;;;;;18.00;3.20;;;15.40;99.90;;;;;;5106219;28;20044;-73
2022/11/07 10:55:28;;;;;;;18.85;3.67;;;15.50;99.90;;;;;;5103994;27;20034;-73
2022/11/07 10:58:01;;;;;;;16.38;3.10;;;15.60;99.90;;;;;;5110139;28;20035;-74
2022/11/07 11:00:30;;;;;;;12.73;3.42;;;15.60;99.90;;;;;;5105355;28;20027;-74
2022/11/07 11:02:57;;;;;;;16.55;2.97;;;15.70;99.90;;;;;;5096349;28;20024;-74
2022/11/07 11:05:40;;;;;;;14.25;2.95;;;15.70;99.90;;;;;;5110801;28;20035;-73
2022/11/07 11:08:37;;;;;;;18.13;3.78;;;15.80;99.90;;;;;;5107044;27;20120;-73
2022/11/07 11:11:32;;;;;;;16.45;3.00;;;15.70;99.90;;;;;;5090826;28;20087;-73
2022/11/07 11:14:03;;;;;;;13.45;2.67;;;15.80;99.90;;;;;;5102682;27;20059;-74
2022/11/07 11:16:32;;;;;;;9.07;3.10;;;15.90;99.90;;;;;;5110401;28;20024;-74
2022/11/07 11:19:00;;;;;;;8.90;3.25;;;15.90;99.90;;;;;;5107506;28;20023;-74
2022/11/07 11:21:36;;;;;;;14.43;2.92;;;15.90;99.90;;;;;;5107371;27;20035;-74
2022/11/07 11:24:34;;;;;;;11.82;3.08;;;16.00;99.90;;;;;;5106812;28;20110;-73
2022/11/07 11:27:16;;;;;;;12.50;3.08;;;16.00;99.90;;;;;;5090229;28;20054;-73
2022/11/07 11:29:59;;;;;;;15.13;3.53;;;16.10;99.90;;;;;;5101867;28;20012;-73
2022/11/07 11:32:42;;;;;;;18.83;2.97;;;16.10;99.90;;;;;;5089882;28;20277;-74
2022/11/07 11:35:34;;;;;;;12.68;3.03;;;16.10;99.90;;;;;;5107023;28;20020;-74
2022/11/07 11:38:07;;;;;;;18.50;3.28;;;16.10;99.90;;;;;;5106147;28;20115;-74
2022/11/07 11:40:37;;;;;;;11.68;2.53;;;16.10;99.90;;;;;;5110479;28;20094;-74
2022/11/07 11:43:31;;;;;;;13.20;3.40;;;16.10;99.90;;;;;;5085888;28;20502;-75
2022/11/07 11:45:57;;;;;;;14.88;3.42;;;16.10;99.90;;;;;;5107979;28;20032;-74
2022/11/07 11:48:42;;;;;;;15.63;3.55;;;16.10;99.90;;;;;;5092966;28;20529;-74
2022/11/07 11:51:37;;;;;;;14.95;3.40;;;16.10;99.90;;;;;;5109567;28;20063;-75
2022/11/07 11:54:08;;;;;;;15.68;2.70;;;16.20;99.90;;;;;;5104182;28;20028;-72
2022/11/07 11:56:37;;;;;;;14.32;3.22;;;16.10;99.90;;;;;;5085502;28;20088;-74
2022/11/07 11:59:40;;;;;;;11.38;2.78;;;16.10;99.90;;;;;;5104869;27;20034;-75
2022/11/07 12:02:15;;;;;;;;;;;16.10;99.90;;;;;;5101805;28;20149;-75
2022/11/07 12:04:59;;;;;;;13.05;2.60;;;16.00;99.90;;;;;;5107372;28;19912;-75
2022/11/07 12:07:55;;;;;;;11.32;2.40;;;16.10;99.90;;;;;;5103258;28;20067;-75
2022/11/07 12:10:40;;;;;;;14.00;2.70;;;16.10;99.90;;;;;;5108784;28;20018;-75
2022/11/07 12:13:14;;;;;;;16.02;2.97;;;16.00;99.90;;;;;;5107400;28;20023;-74
2022/11/07 12:16:04;;;;;;;11.50;2.75;;;16.00;99.90;;;;;;5106808;28;20054;-75
2022/11/07 12:18:37;;;;;;;11.65;2.47;;;16.00;99.90;;;;;;5104628;28;20551;-75
2022/11/07 12:21:31;;;;;;;15.63;3.22;;;16.00;99.90;;;;;;5086779;28;20119;-75
2022/11/07 12:24:31;;;;;;;12.25;2.60;;;15.90;99.90;;;;;;5106177;28;20028;-75
2022/11/07 12:27:29;;;;;;;14.10;2.65;;;15.90;99.90;;;;;;5103886;28;20064;-74
2022/11/07 12:30:04;;;;;;;15.02;3.28;;;16.00;99.90;;;;;;5072553;28;20036;-74
2022/11/07 12:32:35;;;;;;;10.88;2.65;;;16.10;99.90;;;;;;5105882;28;20059;-77
2022/11/07 12:35:13;;;;;;;10.95;2.08;;;16.00;99.90;;;;;;5109312;28;20094;-77
2022/11/07 12:37:51;;;;;;;13.05;2.60;;;16.00;99.90;;;;;;5107562;27;20028;-76
2022/11/07 12:40:28;;;;;;;14.07;2.70;;;16.00;99.90;;;;;;5101106;28;20023;-76
2022/11/07 12:43:23;;;;;;;11.88;3.17;;;16.10;99.90;;;;;;5104589;28;20080;-76
2022/11/07 12:46:25;;;;;;;10.73;2.58;;;16.10;99.90;;;;;;5101061;28;20035;-75
2022/11/07 12:49:14;;;;;;;11.95;2.60;;;16.00;99.90;;;;;;5100434;28;20036;-76
2022/11/07 12:52:18;;;;;;;12.23;3.20;;;16.00;99.90;;;;;;5105294;28;20467;-76
2022/11/07 12:54:52;;;;;;;9.65;2.80;;;16.00;99.90;;;;;;5105741;28;20044;-74
2022/11/07 12:57:21;;;;;;;9.63;2.35;;;16.00;99.90;;;;;;5098207;28;20038;-73
2022/11/07 13:00:14;;;;;;;11.82;2.28;;;16.00;99.90;;;;;;5108632;28;20487;-74
2022/11/07 13:02:57;;;;;;;13.95;3.05;;;16.00;99.90;;;;;;5100519;28;20031;-74